Time;durP1;ratioP1;P1;durP2;ratioP2;P2;SDS_P1;SDS_P2;PMS_P1;PMS_P2;Temp;Humidity;BMP_temperature;BMP_pressure;BME280_temperature;BME280_humidity;BME280_pressure;Samples;Min_cycle;Max_cycle;Signal;HPM_P1;HPM_P2
2022/09/27 00:00:17;;;;;;;;;1.00;1.00;;;;;;;;4981488;28;9803;-79
2022/09/27 00:02:45;;;;;;;;;4.25;1.75;;;;;;;;4982080;28;9721;-79
2022/09/27 00:05:12;;;;;;;;;2.75;2.75;;;;;;;;4982137;28;9726;-78
2022/09/27 00:07:39;;;;;;;;;2.00;2.00;;;;;;;;4983812;28;9687;-80
2022/09/27 00:10:10;;;;;;;;;3.00;1.50;;;;;;;;4981017;28;9777;-82
2022/09/27 00:12:39;;;;;;;;;3.00;3.00;;;;;;;;4983403;28;9675;-81
2022/09/27 00:15:08;;;;;;;;;2.75;2.75;;;;;;;;4981826;28;9899;-83
2022/09/27 00:17:36;;;;;;;;;1.50;1.00;;;;;;;;4985337;28;9985;-82
2022/09/27 00:20:05;;;;;;;;;3.00;2.00;;;;;;;;4987599;28;9926;-82
2022/09/27 00:22:32;;;;;;;;;2.00;2.00;;;;;;;;4986697;28;9905;-80
2022/09/27 00:25:00;;;;;;;;;2.00;2.00;;;;;;;;4986661;28;9743;-80
2022/09/27 00:27:27;;;;;;;;;3.00;3.00;;;;;;;;4986116;28;9735;-79
2022/09/27 00:29:56;;;;;;;;;3.00;3.00;;;;;;;;4987110;28;9827;-81
2022/09/27 00:32:26;;;;;;;;;3.00;3.00;;;;;;;;4983853;28;9738;-81
2022/09/27 00:34:53;;;;;;;;;2.25;2.25;;;;;;;;4978338;28;10637;-81
2022/09/27 00:37:21;;;;;;;;;2.00;2.00;;;;;;;;4987079;28;9878;-79
2022/09/27 00:39:48;;;;;;;;;3.00;3.00;;;;;;;;4985730;28;9743;-78
2022/09/27 00:42:15;;;;;;;;;2.00;2.00;;;;;;;;4986931;28;9794;-80
2022/09/27 00:45:17;;;;;;;;;4.00;4.00;;;;;;;;4984048;28;9748;-79
2022/09/27 00:47:50;;;;;;;;;2.75;2.75;;;;;;;;4985652;28;9916;-79
2022/09/27 00:50:26;;;;;;;;;8.00;4.25;;;;;;;;4985529;28;9825;-80
2022/09/27 00:53:00;;;;;;;;;4.00;3.00;;;;;;;;4983963;28;9810;-79
2022/09/27 00:55:31;;;;;;;;;2.50;2.50;;;;;;;;4986109;28;9826;-78
2022/09/27 00:57:58;;;;;;;;;3.50;2.75;;;;;;;;4984723;28;9904;-80
2022/09/27 01:00:29;;;;;;;;;5.00;3.00;;;;;;;;4985760;28;9750;-81
2022/09/27 01:02:57;;;;;;;;;3.75;3.75;;;;;;;;4983717;28;10608;-80
2022/09/27 01:05:25;;;;;;;;;4.00;4.00;;;;;;;;4985565;28;9782;-82
2022/09/27 01:07:55;;;;;;;;;4.75;3.50;;;;;;;;4986749;28;9770;-80
2022/09/27 01:10:25;;;;;;;;;3.00;3.00;;;;;;;;4980502;28;9742;-86
2022/09/27 01:12:59;;;;;;;;;2.25;2.25;;;;;;;;4985457;28;9662;-83
2022/09/27 01:15:33;;;;;;;;;2.00;2.00;;;;;;;;4986426;28;9803;-82
2022/09/27 01:18:15;;;;;;;;;2.00;2.00;;;;;;;;4968523;28;9817;-81
2022/09/27 01:21:24;;;;;;;;;2.00;2.00;;;;;;;;4987017;28;9922;-81
2022/09/27 01:24:12;;;;;;;;;2.25;2.25;;;;;;;;4980778;28;9732;-83
2022/09/27 01:27:03;;;;;;;;;3.00;3.00;;;;;;;;4984965;28;9736;-81
2022/09/27 01:29:36;;;;;;;;;3.00;3.00;;;;;;;;4983411;28;9755;-83
2022/09/27 01:32:07;;;;;;;;;3.00;1.25;;;;;;;;4983897;28;9902;-85
2022/09/27 01:34:40;;;;;;;;;4.00;2.50;;;;;;;;4977119;28;9822;-79
2022/09/27 01:37:13;;;;;;;;;2.00;2.00;;;;;;;;4983750;28;9781;-83
2022/09/27 01:39:48;;;;;;;;;1.75;1.75;;;;;;;;4989108;28;9887;-81
2022/09/27 01:42:21;;;;;;;;;3.00;3.00;;;;;;;;4989290;28;9895;-85
2022/09/27 01:44:52;;;;;;;;;2.00;2.00;;;;;;;;4985995;28;10107;-84
2022/09/27 01:47:22;;;;;;;;;1.75;1.75;;;;;;;;4986154;28;9913;-82
2022/09/27 01:49:56;;;;;;;;;4.50;2.00;;;;;;;;4985619;28;10070;-80
2022/09/27 01:52:28;;;;;;;;;1.00;1.00;;;;;;;;4985696;28;9941;-80
2022/09/27 01:54:58;;;;;;;;;2.50;2.50;;;;;;;;4984084;28;9995;-83
2022/09/27 01:57:28;;;;;;;;;5.00;2.00;;;;;;;;4985198;28;10851;-80
2022/09/27 01:59:59;;;;;;;;;2.00;2.00;;;;;;;;4986069;28;10110;-84
2022/09/27 02:02:29;;;;;;;;;4.00;2.00;;;;;;;;4984149;28;10739;-82
2022/09/27 02:05:00;;;;;;;;;2.00;2.00;;;;;;;;4985302;28;10059;-81
2022/09/27 02:07:31;;;;;;;;;2.00;2.00;;;;;;;;4983904;28;10083;-81
2022/09/27 02:10:01;;;;;;;;;4.50;2.75;;;;;;;;4985765;28;10150;-82
2022/09/27 02:12:33;;;;;;;;;3.00;3.00;;;;;;;;4982961;28;9966;-83
2022/09/27 02:15:05;;;;;;;;;2.00;2.00;;;;;;;;4982794;28;10207;-79
2022/09/27 02:17:42;;;;;;;;;4.00;2.50;;;;;;;;4985258;28;10143;-80
2022/09/27 02:20:16;;;;;;;;;4.00;4.00;;;;;;;;4983823;28;10218;-82
2022/09/27 02:22:47;;;;;;;;;6.25;3.75;;;;;;;;4985309;28;10628;-81
2022/09/27 02:25:20;;;;;;;;;3.00;3.00;;;;;;;;4984534;28;10751;-85
2022/09/27 02:27:53;;;;;;;;;4.75;3.25;;;;;;;;4984464;28;10325;-79
2022/09/27 02:30:21;;;;;;;;;5.00;3.00;;;;;;;;4983491;28;10179;-84
2022/09/27 02:32:50;;;;;;;;;2.25;2.25;;;;;;;;4983060;28;11294;-83
2022/09/27 02:35:20;;;;;;;;;2.00;2.00;;;;;;;;4984367;28;10392;-82
2022/09/27 02:37:47;;;;;;;;;2.00;2.00;;;;;;;;4984016;28;10368;-82
2022/09/27 02:40:15;;;;;;;;;2.25;2.25;;;;;;;;4986387;28;10137;-82
2022/09/27 02:42:43;;;;;;;;;3.00;3.00;;;;;;;;4988515;28;10187;-82
2022/09/27 02:45:13;;;;;;;;;3.00;3.00;;;;;;;;4986924;28;10219;-81
2022/09/27 02:47:57;;;;;;;;;2.75;2.75;;;;;;;;4984046;28;10356;-82
2022/09/27 02:50:52;;;;;;;;;1.75;1.75;;;;;;;;4980789;28;10279;-79
2022/09/27 02:53:30;;;;;;;;;3.00;3.00;;;;;;;;4959597;28;10314;-81
2022/09/27 02:56:03;;;;;;;;;2.50;2.50;;;;;;;;4984654;28;10959;-81
2022/09/27 02:58:42;;;;;;;;;1.00;1.00;;;;;;;;4983373;28;10241;-84
2022/09/27 03:01:13;;;;;;;;;2.25;2.25;;;;;;;;4998494;28;10205;-83
2022/09/27 03:03:46;;;;;;;;;4.50;3.00;;;;;;;;4982055;28;10147;-85
2022/09/27 03:06:17;;;;;;;;;2.00;2.00;;;;;;;;4985175;28;10239;-79
2022/09/27 03:08:45;;;;;;;;;2.00;2.00;;;;;;;;4985309;28;10101;-90
2022/09/27 03:11:12;;;;;;;;;4.00;2.75;;;;;;;;4986297;28;10205;-84
2022/09/27 03:13:40;;;;;;;;;2.50;2.00;;;;;;;;4984950;28;10155;-87
2022/09/27 03:16:08;;;;;;;;;5.25;3.00;;;;;;;;4983406;28;10189;-84
2022/09/27 03:18:35;;;;;;;;;2.00;2.00;;;;;;;;4984541;28;10086;-85
2022/09/27 03:21:04;;;;;;;;;2.25;2.25;;;;;;;;4982456;28;10256;-84
2022/09/27 03:23:31;;;;;;;;;3.25;2.25;;;;;;;;4973179;28;10125;-80
2022/09/27 03:25:59;;;;;;;;;3.25;2.25;;;;;;;;4984299;28;10288;-85
2022/09/27 03:28:28;;;;;;;;;2.00;2.00;;;;;;;;4983664;28;10341;-84
2022/09/27 03:30:56;;;;;;;;;3.50;2.50;;;;;;;;4982649;28;10214;-81
2022/09/27 03:33:23;;;;;;;;;1.00;1.00;;;;;;;;4981858;28;10490;-84
2022/09/27 03:35:51;;;;;;;;;4.00;2.00;;;;;;;;4984408;28;10957;-81
2022/09/27 03:38:20;;;;;;;;;2.00;2.00;;;;;;;;4981159;28;10371;-83
2022/09/27 03:40:47;;;;;;;;;3.25;2.00;;;;;;;;4986270;28;10188;-85
2022/09/27 03:43:14;;;;;;;;;2.00;2.00;;;;;;;;4988726;28;10204;-85
2022/09/27 03:45:44;;;;;;;;;3.00;2.00;;;;;;;;4988766;28;10026;-83
2022/09/27 03:48:13;;;;;;;;;2.00;2.00;;;;;;;;4984112;28;10171;-86
2022/09/27 03:50:40;;;;;;;;;1.00;1.00;;;;;;;;4984195;28;9984;-81
2022/09/27 03:53:07;;;;;;;;;2.75;2.75;;;;;;;;4986795;28;10758;-84
2022/09/27 03:55:36;;;;;;;;;1.00;1.00;;;;;;;;4987177;28;10002;-80
2022/09/27 03:58:04;;;;;;;;;1.00;1.00;;;;;;;;4988458;28;10076;-83
2022/09/27 04:00:31;;;;;;;;;1.00;1.00;;;;;;;;4985318;28;9803;-80
2022/09/27 04:02:59;;;;;;;;;1.25;1.25;;;;;;;;4988049;28;10063;-84
2022/09/27 04:05:28;;;;;;;;;1.00;1.00;;;;;;;;4987905;28;9969;-79
2022/09/27 04:07:56;;;;;;;;;0.00;0.00;;;;;;;;4987041;28;9891;-80
2022/09/27 04:10:24;;;;;;;;;0.50;0.50;;;;;;;;4987828;28;10000;-83
2022/09/27 04:12:53;;;;;;;;;1.00;1.00;;;;;;;;4993456;28;9808;-82
2022/09/27 04:15:20;;;;;;;;;0.00;0.00;;;;;;;;4987759;28;9880;-83
2022/09/27 04:17:48;;;;;;;;;1.75;0.00;;;;;;;;4985107;28;9883;-81
2022/09/27 04:20:15;;;;;;;;;0.00;0.00;;;;;;;;4987536;28;9817;-81
2022/09/27 04:22:44;;;;;;;;;0.50;0.00;;;;;;;;4986667;28;9733;-83
2022/09/27 04:25:12;;;;;;;;;0.75;0.00;;;;;;;;4985577;28;9771;-79
2022/09/27 04:27:42;;;;;;;;;0.00;0.00;;;;;;;;4987303;28;9789;-81
2022/09/27 04:30:13;;;;;;;;;0.00;0.00;;;;;;;;4983455;28;9829;-82
2022/09/27 04:32:42;;;;;;;;;0.00;0.00;;;;;;;;4984217;28;9970;-81
2022/09/27 04:37:54;;;;;;;;;1.00;1.00;;;;;;;;4986453;28;10034;-80
2022/09/27 04:40:22;;;;;;;;;0.00;0.00;;;;;;;;4984962;28;10963;-81
2022/09/27 04:42:49;;;;;;;;;1.25;0.75;;;;;;;;4984911;28;10125;-82
2022/09/27 04:45:21;;;;;;;;;1.00;0.75;;;;;;;;4988560;28;9973;-81
2022/09/27 04:47:50;;;;;;;;;3.00;1.00;;;;;;;;4984721;28;10051;-81
2022/09/27 04:50:18;;;;;;;;;1.00;1.00;;;;;;;;4990056;28;10215;-82
2022/09/27 04:52:50;;;;;;;;;1.00;1.00;;;;;;;;4990395;28;10070;-79
2022/09/27 04:55:18;;;;;;;;;1.75;1.75;;;;;;;;4985441;28;10070;-92
2022/09/27 04:57:45;;;;;;;;;1.00;1.00;;;;;;;;4987207;28;10064;-85
2022/09/27 05:00:14;;;;;;;;;2.00;2.00;;;;;;;;4985440;28;10119;-87
2022/09/27 05:02:43;;;;;;;;;1.75;1.75;;;;;;;;4985497;28;10097;-90
2022/09/27 05:05:11;;;;;;;;;2.00;2.00;;;;;;;;4984461;28;10132;-80
2022/09/27 05:07:39;;;;;;;;;2.00;2.00;;;;;;;;4985823;28;10055;-84
2022/09/27 05:10:07;;;;;;;;;3.00;3.00;;;;;;;;4984380;28;10171;-82
2022/09/27 05:12:34;;;;;;;;;2.75;2.75;;;;;;;;4985129;28;10257;-80
2022/09/27 05:15:02;;;;;;;;;2.00;2.00;;;;;;;;4984203;28;10200;-80
2022/09/27 05:17:29;;;;;;;;;2.75;1.00;;;;;;;;4984265;28;10163;-80
2022/09/27 05:19:58;;;;;;;;;1.75;1.75;;;;;;;;4983745;28;10198;-80
2022/09/27 05:22:25;;;;;;;;;3.00;2.00;;;;;;;;4983936;28;10161;-81
2022/09/27 05:24:53;;;;;;;;;2.75;1.75;;;;;;;;4985001;28;10063;-80
2022/09/27 05:27:20;;;;;;;;;2.00;2.00;;;;;;;;4983717;28;10127;-80
2022/09/27 05:29:47;;;;;;;;;1.50;1.50;;;;;;;;4984710;28;9990;-81
2022/09/27 05:32:15;;;;;;;;;5.25;1.75;;;;;;;;4983341;28;9950;-80
2022/09/27 05:34:43;;;;;;;;;2.00;2.00;;;;;;;;4983714;28;10005;-82
2022/09/27 05:37:13;;;;;;;;;2.00;2.00;;;;;;;;4983851;28;10100;-81
2022/09/27 05:39:40;;;;;;;;;3.50;2.25;;;;;;;;4982606;28;10133;-81
2022/09/27 05:42:09;;;;;;;;;1.00;1.00;;;;;;;;4985112;28;10297;-82
2022/09/27 05:44:37;;;;;;;;;1.00;1.00;;;;;;;;4986729;28;10036;-82
2022/09/27 05:47:04;;;;;;;;;2.00;2.00;;;;;;;;4987948;28;10742;-85
2022/09/27 05:49:32;;;;;;;;;2.00;2.00;;;;;;;;4983642;28;10183;-87
2022/09/27 05:52:01;;;;;;;;;2.00;2.00;;;;;;;;4983573;28;10294;-80
2022/09/27 05:54:29;;;;;;;;;1.50;1.50;;;;;;;;4963272;28;10220;-80
2022/09/27 05:56:57;;;;;;;;;3.00;3.00;;;;;;;;4982880;28;10086;-78
2022/09/27 05:59:25;;;;;;;;;2.00;2.00;;;;;;;;4984012;28;10041;-78
2022/09/27 06:01:52;;;;;;;;;2.00;2.00;;;;;;;;4981749;28;10022;-77
2022/09/27 06:04:20;;;;;;;;;1.00;1.00;;;;;;;;4984653;28;10050;-75
2022/09/27 06:06:47;;;;;;;;;2.50;2.00;;;;;;;;4983437;28;10202;-75
2022/09/27 06:09:16;;;;;;;;;2.00;2.00;;;;;;;;4984629;28;10070;-74
2022/09/27 06:11:45;;;;;;;;;1.50;1.50;;;;;;;;4982212;28;10135;-74
2022/09/27 06:14:12;;;;;;;;;1.75;1.75;;;;;;;;4983834;28;10145;-75
2022/09/27 06:16:39;;;;;;;;;2.00;2.00;;;;;;;;4983196;28;10945;-75
2022/09/27 06:19:07;;;;;;;;;1.00;1.00;;;;;;;;4982507;28;10884;-76
2022/09/27 06:21:35;;;;;;;;;1.75;1.75;;;;;;;;4984652;28;10018;-77
2022/09/27 06:24:03;;;;;;;;;2.00;2.00;;;;;;;;4980222;28;10209;-76
2022/09/27 06:26:30;;;;;;;;;1.25;1.25;;;;;;;;4983282;28;11047;-76
2022/09/27 06:28:59;;;;;;;;;2.00;2.00;;;;;;;;4982736;28;10056;-74
2022/09/27 06:31:26;;;;;;;;;2.50;2.50;;;;;;;;4982340;28;10122;-74
2022/09/27 06:33:53;;;;;;;;;2.00;2.00;;;;;;;;4982470;28;10114;-75
2022/09/27 06:36:21;;;;;;;;;1.75;1.75;;;;;;;;4982084;28;10889;-75
2022/09/27 06:38:48;;;;;;;;;2.25;2.25;;;;;;;;4983134;28;10074;-75
2022/09/27 06:41:16;;;;;;;;;1.25;1.25;;;;;;;;4981953;28;10062;-76
2022/09/27 06:43:44;;;;;;;;;0.00;0.00;;;;;;;;4982708;28;10143;-75
2022/09/27 06:46:14;;;;;;;;;1.75;1.75;;;;;;;;4982110;28;10133;-75
2022/09/27 06:48:41;;;;;;;;;2.75;1.25;;;;;;;;4982134;28;10049;-76
2022/09/27 06:51:09;;;;;;;;;2.00;2.00;;;;;;;;4982414;28;10351;-76
2022/09/27 06:53:37;;;;;;;;;3.25;2.00;;;;;;;;4982559;28;10173;-76
2022/09/27 06:56:05;;;;;;;;;1.00;1.00;;;;;;;;4982680;28;10081;-75
2022/09/27 07:01:24;;;;;;;;;1.00;1.00;;;;;;;;4983510;28;9962;-77
2022/09/27 07:03:52;;;;;;;;;3.00;1.00;;;;;;;;4979496;28;9878;-75
2022/09/27 07:06:22;;;;;;;;;2.00;0.25;;;;;;;;4981219;28;10098;-75
2022/09/27 07:08:52;;;;;;;;;1.25;0.00;;;;;;;;4982164;28;9881;-75
2022/09/27 07:11:21;;;;;;;;;1.00;1.00;;;;;;;;4981528;28;9946;-75
2022/09/27 07:13:48;;;;;;;;;0.75;0.75;;;;;;;;4982406;28;9877;-75
2022/09/27 07:16:16;;;;;;;;;1.00;1.00;;;;;;;;4981228;28;9890;-75
2022/09/27 07:18:51;;;;;;;;;1.00;0.75;;;;;;;;4984003;28;10703;-75
2022/09/27 07:21:19;;;;;;;;;0.25;0.25;;;;;;;;4981496;28;9958;-75
2022/09/27 07:23:46;;;;;;;;;0.50;0.50;;;;;;;;4983510;28;9810;-75
2022/09/27 07:26:13;;;;;;;;;1.00;1.00;;;;;;;;4983220;28;9876;-75
2022/09/27 07:28:41;;;;;;;;;0.00;0.00;;;;;;;;4969510;28;9871;-74
2022/09/27 07:31:09;;;;;;;;;1.00;1.00;;;;;;;;4986053;28;10552;-74
2022/09/27 07:33:37;;;;;;;;;3.00;2.00;;;;;;;;4986507;28;10151;-74
2022/09/27 07:36:10;;;;;;;;;1.00;1.00;;;;;;;;4987780;28;9789;-74
2022/09/27 07:38:38;;;;;;;;;2.00;2.00;;;;;;;;4986125;28;9713;-74
2022/09/27 07:41:08;;;;;;;;;1.00;1.00;;;;;;;;4988244;28;10592;-74
2022/09/27 07:43:36;;;;;;;;;1.00;1.00;;;;;;;;4986139;28;9793;-74
2022/09/27 07:46:03;;;;;;;;;1.00;1.00;;;;;;;;4986842;28;9739;-74
2022/09/27 07:48:31;;;;;;;;;2.00;2.00;;;;;;;;4988008;28;9689;-74
2022/09/27 07:50:58;;;;;;;;;1.00;1.00;;;;;;;;4986036;28;9526;-74
2022/09/27 07:53:27;;;;;;;;;2.50;1.00;;;;;;;;4986996;28;9759;-74
2022/09/27 07:55:56;;;;;;;;;1.00;1.00;;;;;;;;4985946;28;9504;-75
2022/09/27 07:58:23;;;;;;;;;0.75;0.00;;;;;;;;4987196;28;9577;-74
2022/09/27 08:00:50;;;;;;;;;0.00;0.00;;;;;;;;4985739;28;9377;-75
2022/09/27 08:03:18;;;;;;;;;1.00;1.00;;;;;;;;4986621;28;9507;-75
2022/09/27 08:05:47;;;;;;;;;0.67;0.67;;;;;;;;4986329;28;9990;-75
2022/09/27 08:08:15;;;;;;;;;1.00;1.00;;;;;;;;4986437;28;9399;-75
2022/09/27 08:10:46;;;;;;;;;1.67;1.00;;;;;;;;4986673;28;9356;-75
2022/09/27 08:13:16;;;;;;;;;1.00;1.00;;;;;;;;4980453;28;9465;-75
2022/09/27 08:15:44;;;;;;;;;2.00;1.00;;;;;;;;4986439;28;10135;-76
2022/09/27 08:18:11;;;;;;;;;0.00;0.00;;;;;;;;4985355;28;9445;-75
2022/09/27 08:20:39;;;;;;;;;2.67;1.00;;;;;;;;4986331;28;9107;-75
2022/09/27 08:23:06;;;;;;;;;2.67;2.00;;;;;;;;4986717;28;9238;-74
2022/09/27 08:25:33;;;;;;;;;3.00;1.00;;;;;;;;4985622;28;9114;-75
2022/09/27 08:28:04;;;;;;;;;2.00;0.25;;;;;;;;4987414;28;8961;-75
2022/09/27 08:30:32;;;;;;;;;0.25;0.25;;;;;;;;4984251;28;8866;-75
2022/09/27 08:33:01;;;;;;;;;0.00;0.00;;;;;;;;4987218;28;8891;-75
2022/09/27 08:35:30;;;;;;;;;0.00;0.00;;;;;;;;4985565;28;8881;-74
2022/09/27 08:37:58;;;;;;;;;0.00;0.00;;;;;;;;4986842;28;8898;-75
2022/09/27 08:40:32;;;;;;;;;0.00;0.00;;;;;;;;4986916;28;8997;-75
2022/09/27 08:43:06;;;;;;;;;1.75;1.00;;;;;;;;4984760;28;8968;-75
2022/09/27 08:45:37;;;;;;;;;0.00;0.00;;;;;;;;4986857;28;8883;-74
2022/09/27 08:48:06;;;;;;;;;0.00;0.00;;;;;;;;4985893;28;8887;-74
2022/09/27 08:50:35;;;;;;;;;1.50;0.50;;;;;;;;4987134;28;8909;-75
2022/09/27 08:53:07;;;;;;;;;0.00;0.00;;;;;;;;4986397;28;8899;-75
2022/09/27 08:55:37;;;;;;;;;0.00;0.00;;;;;;;;4986018;28;9649;-74
2022/09/27 08:58:13;;;;;;;;;0.00;0.00;;;;;;;;4986629;28;8863;-75
2022/09/27 09:00:42;;;;;;;;;0.00;0.00;;;;;;;;4985090;28;8795;-75
2022/09/27 09:03:17;;;;;;;;;0.00;0.00;;;;;;;;4986582;28;9667;-75
2022/09/27 09:05:48;;;;;;;;;0.00;0.00;;;;;;;;4984324;28;9680;-75
2022/09/27 09:08:27;;;;;;;;;0.00;0.00;;;;;;;;4985552;28;8872;-75
2022/09/27 09:13:58;;;;;;;;;1.00;0.00;;;;;;;;4977930;28;8855;-75
2022/09/27 09:16:35;;;;;;;;;2.50;0.25;;;;;;;;4985949;28;8883;-75
2022/09/27 09:19:31;;;;;;;;;0.00;0.00;;;;;;;;4985329;28;9683;-75
2022/09/27 09:22:10;;;;;;;;;0.00;0.00;;;;;;;;4985159;28;8891;-76
2022/09/27 09:24:47;;;;;;;;;0.00;0.00;;;;;;;;4986773;28;8893;-75
2022/09/27 09:27:20;;;;;;;;;1.25;0.00;;;;;;;;4985015;28;8855;-76
2022/09/27 09:30:19;;;;;;;;;0.00;0.00;;;;;;;;4985024;28;9000;-76
2022/09/27 09:32:59;;;;;;;;;0.25;0.00;;;;;;;;4984769;28;8854;-75
2022/09/27 09:35:30;;;;;;;;;0.00;0.00;;;;;;;;4984383;28;8897;-76
2022/09/27 09:38:00;;;;;;;;;0.00;0.00;;;;;;;;4986206;28;8879;-76
2022/09/27 09:40:31;;;;;;;;;1.00;0.00;;;;;;;;4984299;28;8886;-75
2022/09/27 09:43:02;;;;;;;;;0.00;0.00;;;;;;;;4986163;28;9001;-76
2022/09/27 09:45:31;;;;;;;;;1.00;0.00;;;;;;;;4984119;28;8850;-76
2022/09/27 09:48:03;;;;;;;;;0.50;0.50;;;;;;;;4985045;28;8953;-76
2022/09/27 09:50:35;;;;;;;;;2.75;0.00;;;;;;;;4985311;28;8875;-76
2022/09/27 09:53:11;;;;;;;;;0.25;0.25;;;;;;;;4985342;28;9686;-76
2022/09/27 09:55:41;;;;;;;;;0.00;0.00;;;;;;;;4976282;28;8909;-75
2022/09/27 09:58:21;;;;;;;;;0.00;0.00;;;;;;;;4985082;28;8898;-76
2022/09/27 10:00:52;;;;;;;;;2.00;0.00;;;;;;;;4983498;28;8803;-76
2022/09/27 10:03:19;;;;;;;;;0.25;0.00;;;;;;;;4985413;28;8985;-76
2022/09/27 10:05:47;;;;;;;;;1.25;0.00;;;;;;;;4983983;28;9645;-76
2022/09/27 10:08:18;;;;;;;;;0.00;0.00;;;;;;;;4984228;28;8989;-75
2022/09/27 10:10:46;;;;;;;;;1.00;0.25;;;;;;;;4984291;28;8870;-76
2022/09/27 10:13:17;;;;;;;;;0.00;0.00;;;;;;;;4980273;28;8890;-75
2022/09/27 10:15:51;;;;;;;;;0.00;0.00;;;;;;;;4984433;28;8867;-75
2022/09/27 10:18:19;;;;;;;;;0.00;0.00;;;;;;;;4984821;28;8878;-75
2022/09/27 10:20:51;;;;;;;;;0.00;0.00;;;;;;;;4985251;28;8855;-76
2022/09/27 10:23:20;;;;;;;;;0.50;0.00;;;;;;;;4984421;28;8918;-76
2022/09/27 10:25:52;;;;;;;;;0.00;0.00;;;;;;;;4984887;28;8895;-76
2022/09/27 10:28:36;;;;;;;;;0.00;0.00;;;;;;;;4984222;28;8902;-76
2022/09/27 10:31:07;;;;;;;;;0.00;0.00;;;;;;;;4982916;28;8843;-76
2022/09/27 10:33:35;;;;;;;;;0.00;0.00;;;;;;;;4984568;28;8887;-75
2022/09/27 10:36:03;;;;;;;;;0.00;0.00;;;;;;;;4984064;28;8949;-75
2022/09/27 10:38:33;;;;;;;;;0.00;0.00;;;;;;;;4984940;28;8993;-76
2022/09/27 10:41:17;;;;;;;;;0.50;0.50;;;;;;;;4983573;28;9681;-76
2022/09/27 10:43:45;;;;;;;;;0.00;0.00;;;;;;;;4984655;28;8958;-76
2022/09/27 10:46:24;;;;;;;;;0.00;0.00;;;;;;;;4984319;28;8894;-76
2022/09/27 10:49:11;;;;;;;;;0.00;0.00;;;;;;;;4982959;28;8902;-76
2022/09/27 10:51:39;;;;;;;;;0.50;0.00;;;;;;;;4984820;28;9018;-76
2022/09/27 10:54:16;;;;;;;;;0.25;0.00;;;;;;;;4984234;28;9029;-76
2022/09/27 10:56:43;;;;;;;;;0.00;0.00;;;;;;;;4983878;28;8948;-77
2022/09/27 10:59:19;;;;;;;;;0.25;0.00;;;;;;;;4983317;28;8948;-77
2022/09/27 11:01:49;;;;;;;;;0.50;0.00;;;;;;;;4977300;28;8888;-76
2022/09/27 11:04:22;;;;;;;;;0.00;0.00;;;;;;;;4984789;28;8878;-79
2022/09/27 11:06:52;;;;;;;;;0.00;0.00;;;;;;;;4990397;28;8902;-78
2022/09/27 11:09:25;;;;;;;;;0.00;0.00;;;;;;;;4984162;28;8876;-77
2022/09/27 11:12:09;;;;;;;;;0.00;0.00;;;;;;;;4982479;28;8984;-76
2022/09/27 11:14:36;;;;;;;;;0.00;0.00;;;;;;;;4978976;28;8902;-74
2022/09/27 11:17:16;;;;;;;;;1.00;0.00;;;;;;;;4982757;28;8911;-76
2022/09/27 11:19:58;;;;;;;;;0.00;0.00;;;;;;;;4982894;28;8906;-76
2022/09/27 11:22:40;;;;;;;;;0.00;0.00;;;;;;;;4981946;28;8902;-76
2022/09/27 11:25:18;;;;;;;;;0.00;0.00;;;;;;;;4979303;28;8893;-76
2022/09/27 11:27:54;;;;;;;;;0.00;0.00;;;;;;;;4982457;28;8878;-78
2022/09/27 11:30:24;;;;;;;;;0.00;0.00;;;;;;;;4983272;28;8862;-75
2022/09/27 11:33:30;;;;;;;;;0.00;0.00;;;;;;;;4982517;28;9005;-76
2022/09/27 11:36:06;;;;;;;;;0.75;0.00;;;;;;;;4963629;28;8901;-76
2022/09/27 11:38:43;;;;;;;;;0.00;0.00;;;;;;;;4982900;28;8883;-77
2022/09/27 11:41:27;;;;;;;;;0.00;0.00;;;;;;;;4981469;28;8874;-77
2022/09/27 11:44:12;;;;;;;;;0.00;0.00;;;;;;;;4983600;28;8989;-79
2022/09/27 11:46:40;;;;;;;;;0.00;0.00;;;;;;;;4981790;28;8880;-75
2022/09/27 11:49:41;;;;;;;;;0.00;0.00;;;;;;;;4977976;28;8883;-75
2022/09/27 11:52:31;;;;;;;;;0.00;0.00;;;;;;;;4982302;28;8897;-76
2022/09/27 11:55:23;;;;;;;;;0.50;0.00;;;;;;;;4978719;28;8883;-76
2022/09/27 11:57:57;;;;;;;;;0.00;0.00;;;;;;;;4983920;28;8903;-78
2022/09/27 12:00:26;;;;;;;;;0.00;0.00;;;;;;;;4978717;28;8824;-76
2022/09/27 12:03:24;;;;;;;;;0.00;0.00;;;;;;;;4992253;28;8957;-75
2022/09/27 12:06:08;;;;;;;;;1.00;0.00;;;;;;;;4977592;28;8944;-74
2022/09/27 12:08:49;;;;;;;;;3.00;0.00;;;;;;;;4980243;28;9632;-75
2022/09/27 12:11:21;;;;;;;;;0.00;0.00;;;;;;;;4979630;28;9001;-79
2022/09/27 12:13:52;;;;;;;;;0.00;0.00;;;;;;;;4983676;28;8871;-77
2022/09/27 12:16:20;;;;;;;;;0.00;0.00;;;;;;;;4983182;28;8875;-78
2022/09/27 12:18:49;;;;;;;;;0.00;0.00;;;;;;;;4986744;28;8879;-75
2022/09/27 12:21:17;;;;;;;;;1.00;0.00;;;;;;;;4985687;28;8906;-78
2022/09/27 12:23:48;;;;;;;;;0.00;0.00;;;;;;;;4986889;28;8879;-75
2022/09/27 12:26:20;;;;;;;;;0.00;0.00;;;;;;;;4986612;28;8851;-77
2022/09/27 12:28:53;;;;;;;;;0.50;0.00;;;;;;;;4986906;28;8897;-75
2022/09/27 12:31:24;;;;;;;;;0.00;0.00;;;;;;;;4986206;28;8854;-76
2022/09/27 12:34:07;;;;;;;;;0.00;0.00;;;;;;;;4985906;28;8863;-76
2022/09/27 12:36:42;;;;;;;;;0.00;0.00;;;;;;;;4985560;28;8957;-76
2022/09/27 12:39:15;;;;;;;;;0.00;0.00;;;;;;;;4979674;28;8870;-79
2022/09/27 12:41:46;;;;;;;;;0.00;0.00;;;;;;;;4985565;28;8870;-79
2022/09/27 12:44:14;;;;;;;;;0.00;0.00;;;;;;;;4985277;28;8893;-76
2022/09/27 12:46:50;;;;;;;;;0.00;0.00;;;;;;;;4984473;28;8878;-78
2022/09/27 12:49:28;;;;;;;;;0.00;0.00;;;;;;;;4986606;28;8924;-79
2022/09/27 12:51:58;;;;;;;;;1.00;0.00;;;;;;;;4982987;28;8870;-78
2022/09/27 12:54:47;;;;;;;;;0.25;0.25;;;;;;;;4986151;28;8941;-78
2022/09/27 12:57:24;;;;;;;;;0.00;0.00;;;;;;;;4981585;28;8867;-80
2022/09/27 13:00:00;;;;;;;;;0.00;0.00;;;;;;;;4985061;28;8989;-76
2022/09/27 13:03:14;;;;;;;;;0.00;0.00;;;;;;;;4986179;28;8807;-79
2022/09/27 13:06:13;;;;;;;;;0.00;0.00;;;;;;;;4904755;29;8889;-78
2022/09/27 13:09:11;;;;;;;;;1.50;0.00;;;;;;;;4902122;29;8927;-81
2022/09/27 13:11:46;;;;;;;;;0.00;0.00;;;;;;;;4981009;28;8875;-81
2022/09/27 13:14:18;;;;;;;;;0.50;0.00;;;;;;;;4985739;28;8893;-78
2022/09/27 13:16:47;;;;;;;;;0.00;0.00;;;;;;;;4984965;28;8875;-75
2022/09/27 13:19:41;;;;;;;;;0.00;0.00;;;;;;;;4986238;28;8878;-77
2022/09/27 13:22:11;;;;;;;;;0.00;0.00;;;;;;;;4984105;28;8894;-80
2022/09/27 13:24:44;;;;;;;;;0.00;0.00;;;;;;;;4985721;28;8918;-75
2022/09/27 13:27:40;;;;;;;;;0.00;0.00;;;;;;;;4975342;28;9759;-75
2022/09/27 13:30:48;;;;;;;;;1.00;0.00;;;;;;;;4980381;28;8887;-75
2022/09/27 13:33:52;;;;;;;;;0.50;0.50;;;;;;;;4985712;28;9001;-76
2022/09/27 13:36:29;;;;;;;;;0.00;0.00;;;;;;;;4932078;28;8934;-77
2022/09/27 13:39:18;;;;;;;;;1.25;0.75;;;;;;;;4979708;28;8883;-77
2022/09/27 13:42:13;;;;;;;;;0.25;0.25;;;;;;;;4982551;28;8887;-76
2022/09/27 13:44:49;;;;;;;;;2.00;0.00;;;;;;;;4985116;28;8977;-75
2022/09/27 13:47:27;;;;;;;;;0.00;0.00;;;;;;;;4983476;28;8879;-75
2022/09/27 13:49:58;;;;;;;;;3.00;1.25;;;;;;;;4985604;28;8867;-76
2022/09/27 13:52:32;;;;;;;;;0.00;0.00;;;;;;;;4983578;28;8879;-75
2022/09/27 13:55:02;;;;;;;;;0.25;0.25;;;;;;;;4985153;28;8906;-75
2022/09/27 13:57:42;;;;;;;;;1.25;0.75;;;;;;;;4984510;28;8859;-76
2022/09/27 14:00:14;;;;;;;;;1.00;1.00;;;;;;;;4983410;28;8897;-76
2022/09/27 14:02:57;;;;;;;;;2.25;2.25;;;;;;;;4984007;28;8885;-77
2022/09/27 14:05:31;;;;;;;;;1.00;1.00;;;;;;;;4982074;28;8925;-76
2022/09/27 14:08:01;;;;;;;;;1.00;1.00;;;;;;;;4974067;28;8863;-76
2022/09/27 14:10:30;;;;;;;;;2.00;1.00;;;;;;;;4981530;28;8917;-75
2022/09/27 14:13:00;;;;;;;;;0.00;0.00;;;;;;;;4981383;28;9037;-75
2022/09/27 14:15:31;;;;;;;;;1.00;1.00;;;;;;;;4981757;28;8948;-75
2022/09/27 14:17:59;;;;;;;;;2.75;1.25;;;;;;;;4979060;28;8902;-75
2022/09/27 14:20:39;;;;;;;;;1.00;1.00;;;;;;;;4981946;28;8879;-76
2022/09/27 14:23:07;;;;;;;;;1.00;1.00;;;;;;;;4980506;28;9696;-75
2022/09/27 14:25:38;;;;;;;;;0.00;0.00;;;;;;;;4980711;28;8895;-76
2022/09/27 14:28:20;;;;;;;;;2.00;2.00;;;;;;;;4981601;28;8879;-75
2022/09/27 14:30:49;;;;;;;;;1.00;1.00;;;;;;;;4980739;28;8890;-75
2022/09/27 14:33:30;;;;;;;;;2.00;2.00;;;;;;;;4979484;28;8866;-77
2022/09/27 14:38:42;;;;;;;;;3.00;2.00;;;;;;;;4981914;28;8883;-75
2022/09/27 14:41:10;;;;;;;;;1.50;1.50;;;;;;;;4981910;28;8893;-75
2022/09/27 14:43:43;;;;;;;;;1.50;1.50;;;;;;;;4981167;28;9672;-76
2022/09/27 14:46:27;;;;;;;;;2.00;2.00;;;;;;;;4980667;28;8986;-74
2022/09/27 14:48:55;;;;;;;;;2.00;2.00;;;;;;;;4976239;28;8883;-75
2022/09/27 14:51:27;;;;;;;;;1.00;1.00;;;;;;;;4982140;28;8875;-75
2022/09/27 14:53:57;;;;;;;;;3.50;2.00;;;;;;;;4975107;28;8961;-75
2022/09/27 14:56:27;;;;;;;;;1.50;1.50;;;;;;;;4980775;28;9753;-77
2022/09/27 14:59:01;;;;;;;;;1.00;1.00;;;;;;;;4982129;28;8859;-75
2022/09/27 15:01:30;;;;;;;;;1.00;1.00;;;;;;;;4979043;28;8810;-75
2022/09/27 15:04:03;;;;;;;;;1.00;1.00;;;;;;;;4981475;28;8894;-75
2022/09/27 15:06:30;;;;;;;;;1.00;1.00;;;;;;;;4978787;28;8863;-76
2022/09/27 15:08:58;;;;;;;;;2.50;1.25;;;;;;;;4981449;28;9680;-75
2022/09/27 15:11:26;;;;;;;;;3.00;0.00;;;;;;;;4978126;28;9848;-75
2022/09/27 15:13:54;;;;;;;;;2.75;2.00;;;;;;;;4980056;28;8911;-75
2022/09/27 15:16:24;;;;;;;;;1.00;1.00;;;;;;;;4981600;28;8855;-76
2022/09/27 15:18:59;;;;;;;;;1.25;1.25;;;;;;;;4980128;28;8862;-76
2022/09/27 15:21:32;;;;;;;;;1.00;1.00;;;;;;;;4980756;28;9018;-77
2022/09/27 15:24:01;;;;;;;;;2.00;0.75;;;;;;;;4980429;28;9744;-75
2022/09/27 15:26:36;;;;;;;;;1.75;1.75;;;;;;;;4981828;28;8875;-75
2022/09/27 15:29:04;;;;;;;;;3.00;0.50;;;;;;;;4980924;28;8867;-76
2022/09/27 15:31:32;;;;;;;;;1.50;1.50;;;;;;;;4977611;28;8835;-76
2022/09/27 15:34:01;;;;;;;;;2.25;2.25;;;;;;;;4982004;28;8884;-76